Pagina principale
METAR-TAF:

METAR-TAF

Aeroporti :

Lannion, Francia

latitudine: 48-45N, longitudine: 003-28W, altezza: 89 m

Osservazione

Il bollettino è stato emesso 48 minuti fa, alle 00:00 UTC
Vento 11 kt da sud-est
Temperature 7°C
Umidità 93%
Pressione 1001 hPa
Visibilità 10 km o più
Cielo coperto ad un'altezza di 1100 ft

METAR: LFRO 210000Z AUTO 14011KT 9999 OVC011 07/06 Q1001

Ora: 01:48 (00:48 UTC)


TAF: mancante

Osservazioni e previsioni meteorologiche di più di 4000 aeroporti (messaggi METAR e TAF).

Le stazioni disponibili sono rappresentate dai dischi gialli e rossi sulla carta.

Puntare il mouse per vedere il nome della stazione.

Clicca sopra per visualizzare le osservazioni e previsioni meteorologiche.

Per cambiare la mappa : fare clic sui pulsanti verdi con una croce nera per ingrandire, il pulsante verde con un trattino per diminuire, o sulla freccia verde per le mappe adiacenti.


METAR-TAF: